createdAt,value
2018-07-25T00:01:13.238Z,4.40
2018-07-25T00:03:41.792Z,4.60
2018-07-25T00:06:10.354Z,4.40
2018-07-25T00:08:39.269Z,4.73
2018-07-25T00:11:07.937Z,5.03
2018-07-25T00:13:36.464Z,4.50
2018-07-25T00:16:04.979Z,4.70
2018-07-25T00:18:33.524Z,4.73
2018-07-25T00:21:02.037Z,4.50
2018-07-25T00:23:30.589Z,4.47
2018-07-25T00:25:59.136Z,4.57
2018-07-25T00:28:27.638Z,4.50
2018-07-25T00:30:56.177Z,5.07
2018-07-25T00:33:24.733Z,4.80
2018-07-25T00:35:53.310Z,5.10
2018-07-25T00:38:21.840Z,5.07
2018-07-25T00:40:50.357Z,4.90
2018-07-25T00:43:18.918Z,4.80
2018-07-25T00:45:47.449Z,4.67
2018-07-25T00:48:16.004Z,4.83
2018-07-25T00:50:44.581Z,5.93
2018-07-25T00:53:13.104Z,4.80
2018-07-25T00:55:41.634Z,4.97
2018-07-25T00:58:10.174Z,5.10
2018-07-25T01:00:38.830Z,4.63
2018-07-25T01:03:07.431Z,5.10
2018-07-25T01:05:36.019Z,5.40
2018-07-25T01:08:04.549Z,5.07
2018-07-25T01:10:33.125Z,4.90
2018-07-25T01:13:01.650Z,5.10
2018-07-25T01:15:30.250Z,4.93
2018-07-25T01:17:58.884Z,3.93
2018-07-25T01:20:27.422Z,5.43
2018-07-25T01:22:55.947Z,5.10
2018-07-25T01:25:24.478Z,4.80
2018-07-25T01:27:53.320Z,5.57
2018-07-25T01:30:21.909Z,5.47
2018-07-25T01:32:50.432Z,5.40
2018-07-25T01:35:19.096Z,4.90
2018-07-25T01:37:47.610Z,5.40
2018-07-25T01:40:16.185Z,5.67
2018-07-25T01:42:44.751Z,4.93
2018-07-25T01:45:13.249Z,4.93
2018-07-25T01:47:41.794Z,5.30
2018-07-25T01:50:10.316Z,5.53
2018-07-25T01:52:38.838Z,4.70
2018-07-25T01:55:08.031Z,5.03
2018-07-25T01:57:36.550Z,6.03
2018-07-25T02:00:05.464Z,5.60
2018-07-25T02:02:33.983Z,5.13
2018-07-25T02:05:02.506Z,5.63
2018-07-25T02:07:31.126Z,5.53
2018-07-25T02:09:59.665Z,5.53
2018-07-25T02:12:28.173Z,5.17
2018-07-25T02:14:56.700Z,5.90
2018-07-25T02:17:25.204Z,5.60
2018-07-25T02:19:53.710Z,5.13
2018-07-25T02:22:22.228Z,5.20
2018-07-25T02:24:50.766Z,5.97
2018-07-25T02:27:19.286Z,4.60
2018-07-25T02:29:47.823Z,5.50
2018-07-25T02:32:16.366Z,5.53
2018-07-25T02:34:44.885Z,5.40
2018-07-25T02:37:13.414Z,5.20
2018-07-25T02:39:41.926Z,5.70
2018-07-25T02:42:10.528Z,5.53
2018-07-25T02:44:39.062Z,6.47
2018-07-25T02:47:07.593Z,5.40
2018-07-25T02:49:36.133Z,5.70
2018-07-25T02:52:04.683Z,5.50
2018-07-25T02:54:33.244Z,6.00
2018-07-25T02:57:01.899Z,5.78
2018-07-25T02:59:30.346Z,5.30
2018-07-25T03:01:58.878Z,5.80
2018-07-25T03:04:27.481Z,5.40
2018-07-25T03:06:56.007Z,5.50
2018-07-25T03:09:24.531Z,5.78
2018-07-25T03:11:53.074Z,5.80
2018-07-25T03:14:21.956Z,5.47
2018-07-25T03:16:50.537Z,5.58
2018-07-25T03:19:19.159Z,5.63
2018-07-25T03:21:47.648Z,5.58
2018-07-25T03:24:16.185Z,5.40
2018-07-25T03:26:44.725Z,6.20
2018-07-25T03:29:13.263Z,5.80
2018-07-25T03:31:41.843Z,6.00
2018-07-25T03:34:10.406Z,6.20
2018-07-25T03:36:38.945Z,6.40
2018-07-25T03:39:07.640Z,6.03
2018-07-25T03:41:36.183Z,6.03
2018-07-25T03:44:05.040Z,6.10
2018-07-25T03:46:33.589Z,6.97
2018-07-25T03:49:02.159Z,6.22
2018-07-25T03:51:30.774Z,6.15
2018-07-25T03:53:59.310Z,7.00
2018-07-25T03:56:27.897Z,6.67
2018-07-25T03:58:56.430Z,6.90
2018-07-25T04:01:24.924Z,6.80
2018-07-25T04:03:53.536Z,6.20
2018-07-25T04:06:22.070Z,5.87
2018-07-25T04:08:50.615Z,6.35
2018-07-25T04:11:19.159Z,6.70
2018-07-25T04:13:47.702Z,6.80
2018-07-25T04:16:16.225Z,6.40
2018-07-25T04:18:44.759Z,6.25
2018-07-25T04:21:13.310Z,7.10
2018-07-25T04:23:41.845Z,6.57
2018-07-25T04:26:10.379Z,6.57
2018-07-25T04:28:38.894Z,6.57
2018-07-25T04:31:07.445Z,5.47
2018-07-25T04:33:35.952Z,6.30
2018-07-25T04:36:04.615Z,6.50
2018-07-25T04:38:33.129Z,5.60
2018-07-25T04:41:01.680Z,5.67
2018-07-25T04:43:30.187Z,6.83
2018-07-25T04:45:58.722Z,6.27
2018-07-25T04:48:27.220Z,6.20
2018-07-25T04:50:55.779Z,6.57
2018-07-25T04:53:24.373Z,5.77
2018-07-25T04:55:52.918Z,6.03
2018-07-25T04:58:21.436Z,5.70
2018-07-25T05:00:49.954Z,6.10
2018-07-25T05:03:18.482Z,6.17
2018-07-25T05:05:47.022Z,7.10
2018-07-25T05:08:15.553Z,6.97
2018-07-25T05:10:44.077Z,6.50
2018-07-25T05:13:12.610Z,7.13
2018-07-25T05:15:41.114Z,6.67
2018-07-25T05:18:09.654Z,6.33
2018-07-25T05:20:38.450Z,6.47
2018-07-25T05:23:07.040Z,6.80
2018-07-25T05:25:35.575Z,6.40
2018-07-25T05:28:04.101Z,6.50
2018-07-25T05:30:32.643Z,5.70
2018-07-25T05:33:01.180Z,6.80
2018-07-25T05:35:29.739Z,6.13
2018-07-25T05:37:58.262Z,5.93
2018-07-25T05:40:26.780Z,5.60
2018-07-25T05:42:55.318Z,5.63
2018-07-25T05:45:23.950Z,5.40
2018-07-25T05:47:52.472Z,4.93
2018-07-25T05:50:21.001Z,5.50
2018-07-25T05:52:49.542Z,5.17
2018-07-25T05:55:18.080Z,5.00
2018-07-25T05:57:46.638Z,4.53
2018-07-25T06:00:15.181Z,3.97
2018-07-25T06:02:43.761Z,4.30
2018-07-25T06:05:12.286Z,4.20
2018-07-25T06:07:40.783Z,4.00
2018-07-25T06:10:10.604Z,3.73
2018-07-25T06:12:39.165Z,4.03
2018-07-25T06:15:07.738Z,3.90
2018-07-25T06:17:37.512Z,3.77
2018-07-25T06:20:08.120Z,3.80
2018-07-25T06:22:36.691Z,4.17
2018-07-25T06:25:05.281Z,4.00
2018-07-25T06:27:33.830Z,4.03
2018-07-25T06:30:02.474Z,3.93
2018-07-25T06:32:31.034Z,3.90
2018-07-25T06:34:59.571Z,3.90
2018-07-25T06:37:28.106Z,3.67
2018-07-25T06:39:56.646Z,3.73
2018-07-25T06:42:25.217Z,4.00
2018-07-25T06:44:53.735Z,4.27
2018-07-25T06:47:22.309Z,4.10
2018-07-25T06:49:50.936Z,3.50
2018-07-25T06:52:19.481Z,3.53
2018-07-25T06:54:48.056Z,3.97
2018-07-25T06:57:16.633Z,3.87
2018-07-25T06:59:45.130Z,3.10
2018-07-25T07:02:13.686Z,3.00
2018-07-25T07:04:42.210Z,3.30
2018-07-25T07:07:10.751Z,3.03
2018-07-25T07:09:39.288Z,2.63
2018-07-25T07:12:08.075Z,2.60
2018-07-25T07:14:36.686Z,3.00
2018-07-25T07:17:05.286Z,2.80
2018-07-25T07:19:33.867Z,3.00
2018-07-25T07:22:02.437Z,3.10
2018-07-25T07:24:30.998Z,3.60
2018-07-25T07:26:59.536Z,3.03
2018-07-25T07:29:28.073Z,2.57
2018-07-25T07:31:56.617Z,2.70
2018-07-25T07:34:25.164Z,2.77
2018-07-25T07:36:53.691Z,2.43
2018-07-25T07:39:22.230Z,2.97
2018-07-25T07:41:50.736Z,2.50
2018-07-25T07:44:18.979Z,2.80
2018-07-25T07:46:47.519Z,2.40
2018-07-25T07:49:16.072Z,2.90
2018-07-25T07:51:44.601Z,3.00
2018-07-25T07:54:13.148Z,3.17
2018-07-25T07:56:41.716Z,3.47
2018-07-25T07:59:10.323Z,2.60
2018-07-25T08:01:38.868Z,3.03
2018-07-25T08:04:07.413Z,2.87
2018-07-25T08:06:36.035Z,3.27
2018-07-25T08:09:07.779Z,3.17
2018-07-25T08:11:36.402Z,3.37
2018-07-25T08:14:04.970Z,3.57
2018-07-25T08:16:33.566Z,3.20
2018-07-25T08:19:02.184Z,3.37
2018-07-25T08:21:30.703Z,3.40
2018-07-25T08:23:59.316Z,2.90
2018-07-25T08:26:27.891Z,2.23
2018-07-25T08:28:56.457Z,2.33
2018-07-25T08:31:25.958Z,2.23
2018-07-25T08:33:54.565Z,2.10
2018-07-25T08:36:23.075Z,2.90
2018-07-25T08:38:51.689Z,2.10
2018-07-25T08:41:20.347Z,2.53
2018-07-25T08:43:49.001Z,2.37
2018-07-25T08:46:19.505Z,2.67
2018-07-25T08:48:48.152Z,2.23
2018-07-25T08:51:16.727Z,2.10
2018-07-25T08:53:45.302Z,2.27
2018-07-25T08:56:13.871Z,2.20
2018-07-25T08:58:45.503Z,2.00
2018-07-25T09:01:14.172Z,2.27
2018-07-25T09:03:42.736Z,2.50
2018-07-25T09:06:11.305Z,1.97
2018-07-25T09:08:39.873Z,2.20
2018-07-25T09:11:08.514Z,2.50
2018-07-25T09:13:37.151Z,2.23
2018-07-25T09:16:05.822Z,2.10
2018-07-25T09:18:34.390Z,2.20
2018-07-25T09:21:03.000Z,2.30
2018-07-25T09:23:31.578Z,2.50
2018-07-25T09:26:00.566Z,2.40
2018-07-25T09:28:29.594Z,2.10
2018-07-25T09:30:58.360Z,2.47
2018-07-25T09:33:26.975Z,2.63
2018-07-25T09:35:55.565Z,2.40
2018-07-25T09:38:24.181Z,2.20
2018-07-25T09:40:53.450Z,2.57
2018-07-25T09:43:22.117Z,1.87
2018-07-25T09:45:50.730Z,2.20
2018-07-25T09:48:19.556Z,2.27
2018-07-25T09:50:48.208Z,1.97
2018-07-25T09:53:16.829Z,2.17
2018-07-25T09:55:45.403Z,2.00
2018-07-25T09:58:13.976Z,2.03
2018-07-25T10:00:47.993Z,2.30
2018-07-25T10:03:17.007Z,2.37
2018-07-25T10:05:47.113Z,2.27
2018-07-25T10:08:16.450Z,2.10
2018-07-25T10:10:45.319Z,2.10
2018-07-25T10:13:14.046Z,2.00
2018-07-25T10:15:42.703Z,2.20
2018-07-25T10:18:11.302Z,1.97
2018-07-25T10:20:39.882Z,2.00
2018-07-25T10:23:08.529Z,2.10
2018-07-25T10:25:37.143Z,1.87
2018-07-25T10:28:06.096Z,2.27
2018-07-25T10:30:34.672Z,2.23
2018-07-25T10:33:03.347Z,2.13
2018-07-25T10:35:31.963Z,2.20
2018-07-25T10:38:00.644Z,2.57
2018-07-25T10:40:29.304Z,2.20
2018-07-25T10:42:57.907Z,2.63
2018-07-25T10:45:26.529Z,3.40
2018-07-25T10:47:55.071Z,5.83
2018-07-25T10:50:23.650Z,6.17
2018-07-25T10:52:52.240Z,3.33
2018-07-25T10:55:20.742Z,2.63
2018-07-25T10:57:49.257Z,2.80
2018-07-25T11:00:17.820Z,2.83
2018-07-25T11:02:46.382Z,2.60
2018-07-25T11:05:14.912Z,2.93
2018-07-25T11:07:43.462Z,2.83
2018-07-25T11:10:12.005Z,2.90
2018-07-25T11:12:40.510Z,2.70
2018-07-25T11:15:09.067Z,2.50
2018-07-25T11:17:37.550Z,2.80
2018-07-25T11:20:06.350Z,2.90
2018-07-25T11:22:34.904Z,2.30
2018-07-25T11:25:03.482Z,2.93
2018-07-25T11:27:32.006Z,2.83
2018-07-25T11:30:00.579Z,3.07
2018-07-25T11:32:29.097Z,2.50
2018-07-25T11:34:57.625Z,2.50
2018-07-25T11:37:26.199Z,3.00
2018-07-25T11:39:54.782Z,2.30
2018-07-25T11:42:23.323Z,2.23
2018-07-25T11:44:51.851Z,1.80
2018-07-25T11:47:20.401Z,2.10
2018-07-25T11:49:48.998Z,2.07
2018-07-25T11:52:17.629Z,2.00
2018-07-25T11:54:46.204Z,2.60
2018-07-25T11:57:15.374Z,2.17
2018-07-25T11:59:43.954Z,2.10
2018-07-25T12:02:12.691Z,2.47
2018-07-25T12:04:41.215Z,2.10
2018-07-25T12:07:09.772Z,2.30
2018-07-25T12:09:38.379Z,2.30
2018-07-25T12:12:06.938Z,2.20
2018-07-25T12:14:35.514Z,2.73
2018-07-25T12:17:04.036Z,2.20
2018-07-25T12:19:32.664Z,2.00
2018-07-25T12:22:01.206Z,2.30
2018-07-25T12:24:29.798Z,2.13
2018-07-25T12:26:58.476Z,2.30
2018-07-25T12:29:27.016Z,2.30
2018-07-25T12:31:55.581Z,2.70
2018-07-25T12:36:52.609Z,2.13
2018-07-25T12:39:21.281Z,2.70
2018-07-25T12:41:49.866Z,2.20
2018-07-25T12:44:18.419Z,2.20
2018-07-25T12:46:46.982Z,2.37
2018-07-25T12:49:15.804Z,2.20
2018-07-25T12:51:44.528Z,2.80
2018-07-25T12:54:13.369Z,2.10
2018-07-25T12:56:41.928Z,2.23
2018-07-25T12:59:10.506Z,2.33
2018-07-25T13:01:39.109Z,2.57
2018-07-25T13:04:07.679Z,2.30
2018-07-25T13:06:36.283Z,2.10
2018-07-25T13:09:08.111Z,1.97
2018-07-25T13:11:37.221Z,2.23
2018-07-25T13:14:05.799Z,2.20
2018-07-25T13:16:34.436Z,2.67
2018-07-25T13:19:03.499Z,2.77
2018-07-25T13:21:32.154Z,2.10
2018-07-25T13:24:00.714Z,2.50
2018-07-25T13:26:29.224Z,2.80
2018-07-25T13:28:57.853Z,2.00
2018-07-25T13:31:26.988Z,1.80
2018-07-25T13:33:55.520Z,1.50
2018-07-25T13:36:26.518Z,2.20
2018-07-25T13:38:55.330Z,2.30
2018-07-25T13:41:23.954Z,1.80
2018-07-25T13:43:52.491Z,1.83
2018-07-25T13:46:21.562Z,1.97
2018-07-25T13:48:49.974Z,1.83
2018-07-25T13:51:18.605Z,2.07
2018-07-25T13:53:47.265Z,2.37
2018-07-25T13:56:15.880Z,2.40
2018-07-25T13:58:44.475Z,2.60
2018-07-25T14:01:13.051Z,2.53
2018-07-25T14:03:41.572Z,2.50
2018-07-25T14:06:10.198Z,2.07
2018-07-25T14:08:38.731Z,2.50
2018-07-25T14:11:07.396Z,1.90
2018-07-25T14:13:36.035Z,1.90
2018-07-25T14:16:04.646Z,2.23
2018-07-25T14:18:34.123Z,2.30
2018-07-25T14:21:02.682Z,1.93
2018-07-25T14:23:31.335Z,2.27
2018-07-25T14:25:59.874Z,2.07
2018-07-25T14:28:28.476Z,2.60
2018-07-25T14:30:57.133Z,2.03
2018-07-25T14:33:25.703Z,2.23
2018-07-25T14:35:54.261Z,2.30
2018-07-25T14:38:23.022Z,1.87
2018-07-25T14:40:51.617Z,2.10
2018-07-25T14:43:20.311Z,1.90
2018-07-25T14:45:48.851Z,1.73
2018-07-25T14:48:17.401Z,2.30
2018-07-25T14:50:46.033Z,2.30
2018-07-25T14:53:14.581Z,2.07
2018-07-25T14:55:43.181Z,2.40
2018-07-25T14:58:11.744Z,2.23
2018-07-25T15:00:40.327Z,2.20
2018-07-25T15:03:08.938Z,2.03
2018-07-25T15:05:37.470Z,2.10
2018-07-25T15:08:06.698Z,2.40
2018-07-25T15:10:35.382Z,2.17
2018-07-25T15:13:03.915Z,2.10
2018-07-25T15:15:32.505Z,1.80
2018-07-25T15:18:01.114Z,2.50
2018-07-25T15:20:29.695Z,2.20
2018-07-25T15:22:58.308Z,2.40
2018-07-25T15:25:26.824Z,2.27
2018-07-25T15:27:55.415Z,2.43
2018-07-25T15:30:23.998Z,1.77
2018-07-25T15:32:52.648Z,2.10
2018-07-25T15:35:21.261Z,2.27
2018-07-25T15:37:49.887Z,1.73
2018-07-25T15:40:18.425Z,1.90
2018-07-25T15:42:47.014Z,2.27
2018-07-25T15:45:15.532Z,2.20
2018-07-25T15:47:44.132Z,2.20
2018-07-25T15:50:12.727Z,2.00
2018-07-25T15:52:41.327Z,1.80
2018-07-25T15:55:09.924Z,2.00
2018-07-25T15:57:38.462Z,1.63
2018-07-25T16:00:08.022Z,1.93
2018-07-25T16:02:36.630Z,2.20
2018-07-25T16:05:05.165Z,2.30
2018-07-25T16:07:33.713Z,2.43
2018-07-25T16:10:02.313Z,2.40
2018-07-25T16:12:30.764Z,1.80
2018-07-25T16:14:59.321Z,2.03
2018-07-25T16:17:27.869Z,2.00
2018-07-25T16:19:56.418Z,2.10
2018-07-25T16:22:24.994Z,1.73
2018-07-25T16:24:53.554Z,1.80
2018-07-25T16:27:22.090Z,2.33
2018-07-25T16:29:50.671Z,1.83
2018-07-25T16:32:19.325Z,2.00
2018-07-25T16:34:47.918Z,1.80
2018-07-25T16:37:16.491Z,2.30
2018-07-25T16:39:45.153Z,2.00
2018-07-25T16:42:13.771Z,2.27
2018-07-25T16:44:42.315Z,2.43
2018-07-25T16:47:10.862Z,2.27
2018-07-25T16:51:11.406Z,2.80
2018-07-25T16:53:39.965Z,2.27
2018-07-25T16:56:08.607Z,2.17
2018-07-25T16:58:37.199Z,2.33
2018-07-25T17:01:05.805Z,2.70
2018-07-25T17:03:34.438Z,2.20
2018-07-25T17:06:03.031Z,2.20
2018-07-25T17:08:31.614Z,2.13
2018-07-25T17:11:00.227Z,2.53
2018-07-25T17:13:28.829Z,1.87
2018-07-25T17:15:57.424Z,2.13
2018-07-25T17:18:25.966Z,2.17
2018-07-25T17:20:54.690Z,2.57
2018-07-25T17:23:23.236Z,2.80
2018-07-25T17:25:51.820Z,2.40
2018-07-25T17:28:20.394Z,2.60
2018-07-25T17:30:48.997Z,2.87
2018-07-25T17:33:18.214Z,2.20
2018-07-25T17:35:46.833Z,2.67
2018-07-25T17:38:15.461Z,2.77
2018-07-25T17:40:44.085Z,2.53
2018-07-25T17:43:12.687Z,2.53
2018-07-25T17:45:41.393Z,2.50
2018-07-25T17:48:10.022Z,2.47
2018-07-25T17:50:38.559Z,2.73
2018-07-25T17:53:07.176Z,2.40
2018-07-25T17:55:35.780Z,2.27
2018-07-25T17:58:04.402Z,2.60
2018-07-25T18:00:32.948Z,2.30
2018-07-25T18:03:01.574Z,2.67
2018-07-25T18:05:30.163Z,2.73
2018-07-25T18:07:58.710Z,2.80
2018-07-25T18:10:27.302Z,2.97
2018-07-25T18:13:01.156Z,2.67
2018-07-25T18:15:29.778Z,3.33
2018-07-25T18:17:58.380Z,3.10
2018-07-25T18:20:26.962Z,2.90
2018-07-25T18:22:55.632Z,2.63
2018-07-25T18:25:24.168Z,2.57
2018-07-25T18:27:52.731Z,2.87
2018-07-25T18:30:21.342Z,3.30
2018-07-25T18:32:49.926Z,3.00
2018-07-25T18:35:18.546Z,3.07
2018-07-25T18:37:47.123Z,3.20
2018-07-25T18:40:15.798Z,3.20
2018-07-25T18:42:44.964Z,3.40
2018-07-25T18:45:13.578Z,2.63
2018-07-25T18:47:42.350Z,3.03
2018-07-25T18:50:11.588Z,3.03
2018-07-25T18:52:40.178Z,3.10
2018-07-25T18:55:09.050Z,3.00
2018-07-25T18:57:37.643Z,2.93
2018-07-25T19:00:06.370Z,3.00
2018-07-25T19:02:34.974Z,2.87
2018-07-25T19:05:05.301Z,2.83
2018-07-25T19:07:33.953Z,2.53
2018-07-25T19:10:02.544Z,2.67
2018-07-25T19:12:31.135Z,2.50
2018-07-25T19:15:05.095Z,3.20
2018-07-25T19:17:33.675Z,3.60
2018-07-25T19:20:02.284Z,2.63
2018-07-25T19:22:31.115Z,3.00
2018-07-25T19:24:59.828Z,3.03
2018-07-25T19:27:28.419Z,3.13
2018-07-25T19:29:57.042Z,3.37
2018-07-25T19:32:25.768Z,2.87
2018-07-25T19:34:54.319Z,3.00
2018-07-25T19:37:23.001Z,2.93
2018-07-25T19:39:51.587Z,2.70
2018-07-25T19:42:20.132Z,2.77
2018-07-25T19:44:48.729Z,2.50
2018-07-25T19:47:17.346Z,2.80
2018-07-25T19:49:46.334Z,2.70
2018-07-25T19:52:15.000Z,2.80
2018-07-25T19:54:43.526Z,2.77
2018-07-25T19:57:12.103Z,2.50
2018-07-25T19:59:40.705Z,3.10
2018-07-25T20:02:09.324Z,3.10
2018-07-25T20:04:38.052Z,3.30
2018-07-25T20:07:06.843Z,3.03
2018-07-25T20:09:35.452Z,3.20
2018-07-25T20:12:04.088Z,3.03
2018-07-25T20:14:38.052Z,2.40
2018-07-25T20:17:06.711Z,2.50
2018-07-25T20:19:35.451Z,2.87
2018-07-25T20:22:04.031Z,3.03
2018-07-25T20:24:32.638Z,3.17
2018-07-25T20:27:01.264Z,3.63
2018-07-25T20:29:29.859Z,3.80
2018-07-25T20:31:58.470Z,2.83
2018-07-25T20:34:27.240Z,3.70
2018-07-25T20:36:55.806Z,3.63
2018-07-25T20:39:24.398Z,3.53
2018-07-25T20:41:53.013Z,3.83
2018-07-25T20:44:21.523Z,3.40
2018-07-25T20:46:50.161Z,3.40
2018-07-25T20:49:18.733Z,3.07
2018-07-25T20:51:47.300Z,3.50
2018-07-25T20:54:15.939Z,4.00
2018-07-25T20:56:44.643Z,4.67
2018-07-25T20:59:13.302Z,4.47
2018-07-25T21:01:41.880Z,4.30
2018-07-25T21:04:10.571Z,3.73
2018-07-25T21:06:39.143Z,4.13
2018-07-25T21:09:08.762Z,4.37
2018-07-25T21:11:37.385Z,4.17
2018-07-25T21:14:05.964Z,4.00
2018-07-25T21:16:34.528Z,3.90
2018-07-25T21:19:03.107Z,4.90
2018-07-25T21:21:31.639Z,6.00
2018-07-25T21:24:00.335Z,5.70
2018-07-25T21:26:28.858Z,5.20
2018-07-25T21:28:57.417Z,3.70
2018-07-25T21:31:25.984Z,3.90
2018-07-25T21:33:54.547Z,4.50
2018-07-25T21:36:23.487Z,3.40
2018-07-25T21:38:52.121Z,2.90
2018-07-25T21:41:20.790Z,3.60
2018-07-25T21:43:49.351Z,3.80
2018-07-25T21:46:17.943Z,3.67
2018-07-25T21:48:46.490Z,3.80
2018-07-25T21:51:15.106Z,3.53
2018-07-25T21:53:43.682Z,3.80
2018-07-25T21:56:12.251Z,3.90
2018-07-25T21:58:40.845Z,4.37
2018-07-25T22:01:15.610Z,4.10
2018-07-25T22:03:44.558Z,3.80
2018-07-25T22:06:13.126Z,3.63
2018-07-25T22:08:41.672Z,3.70
2018-07-25T22:11:10.222Z,3.97
2018-07-25T22:13:43.035Z,4.20
2018-07-25T22:16:11.727Z,4.63
2018-07-25T22:18:40.323Z,4.30
2018-07-25T22:21:08.898Z,4.10
2018-07-25T22:23:37.534Z,3.90
2018-07-25T22:26:06.141Z,4.00
2018-07-25T22:28:34.688Z,4.00
2018-07-25T22:31:03.293Z,4.40
2018-07-25T22:33:31.798Z,4.10
2018-07-25T22:36:00.085Z,4.63
2018-07-25T22:38:28.624Z,4.00
2018-07-25T22:40:57.211Z,4.23
2018-07-25T22:43:25.789Z,5.10
2018-07-25T22:45:54.323Z,4.43
2018-07-25T22:48:22.920Z,3.87
2018-07-25T22:50:51.432Z,4.77
2018-07-25T22:53:19.958Z,4.13
2018-07-25T22:55:48.577Z,3.53
2018-07-25T22:58:17.095Z,4.23
2018-07-25T23:00:45.682Z,3.80
2018-07-25T23:03:14.211Z,3.60
2018-07-25T23:05:42.817Z,3.77
2018-07-25T23:08:11.331Z,4.03
2018-07-25T23:10:39.934Z,3.73
2018-07-25T23:13:08.545Z,4.20
2018-07-25T23:15:37.092Z,3.83
2018-07-25T23:18:05.618Z,4.00
2018-07-25T23:20:34.230Z,4.83
2018-07-25T23:23:02.762Z,4.57
2018-07-25T23:25:31.584Z,4.50
2018-07-25T23:28:00.626Z,4.07
2018-07-25T23:30:29.921Z,4.17
2018-07-25T23:32:58.454Z,5.20
2018-07-25T23:35:27.025Z,4.17
2018-07-25T23:37:55.583Z,4.17
2018-07-25T23:40:24.117Z,4.10
2018-07-25T23:42:52.987Z,4.80
2018-07-25T23:45:21.563Z,4.27
2018-07-25T23:47:50.141Z,4.50
2018-07-25T23:50:18.650Z,4.60
2018-07-25T23:52:47.233Z,4.60
2018-07-25T23:55:15.739Z,4.90
2018-07-25T23:57:44.348Z,4.73
